createdAt,value
2017-05-24T00:02:18.228Z,54.70
2017-05-24T00:04:47.055Z,55.60
2017-05-24T00:07:15.902Z,55.00
2017-05-24T00:09:44.739Z,55.20
2017-05-24T00:12:13.583Z,54.90
2017-05-24T00:14:42.419Z,55.30
2017-05-24T00:17:11.272Z,56.20
2017-05-24T00:19:40.110Z,55.90
2017-05-24T00:22:08.973Z,56.10
2017-05-24T00:24:37.823Z,56.00
2017-05-24T00:27:06.651Z,56.20
2017-05-24T00:29:34.725Z,56.10
2017-05-24T00:32:03.557Z,56.80
2017-05-24T00:34:32.395Z,57.10
2017-05-24T00:37:01.236Z,56.90
2017-05-24T00:39:30.080Z,56.80
2017-05-24T00:41:58.931Z,57.30
2017-05-24T00:44:27.765Z,57.40
2017-05-24T00:46:56.605Z,57.90
2017-05-24T00:49:25.443Z,57.90
2017-05-24T00:51:54.302Z,57.60
2017-05-24T00:54:23.152Z,58.00
2017-05-24T00:56:52.008Z,57.70
2017-05-24T00:59:21.144Z,57.80
2017-05-24T01:01:49.979Z,57.50
2017-05-24T01:04:18.050Z,57.50
2017-05-24T01:06:46.894Z,57.50
2017-05-24T01:09:15.726Z,57.50
2017-05-24T01:11:44.569Z,57.50
2017-05-24T01:14:13.402Z,57.80
2017-05-24T01:16:42.264Z,57.70
2017-05-24T01:19:11.099Z,57.80
2017-05-24T01:21:39.942Z,56.40
2017-05-24T01:24:08.785Z,56.20
2017-05-24T01:26:37.615Z,54.70
2017-05-24T01:29:06.465Z,54.40
2017-05-24T01:31:35.273Z,54.60
2017-05-24T01:34:04.128Z,54.30
2017-05-24T01:36:32.967Z,54.20
2017-05-24T01:39:01.795Z,54.60
2017-05-24T01:41:30.633Z,54.20
2017-05-24T01:43:59.669Z,53.60
2017-05-24T01:46:28.560Z,53.20
2017-05-24T01:48:57.383Z,53.10
2017-05-24T01:51:26.241Z,53.10
2017-05-24T01:53:55.063Z,52.50
2017-05-24T01:56:23.899Z,52.20
2017-05-24T01:58:52.737Z,52.30
2017-05-24T02:01:21.568Z,52.30
2017-05-24T02:03:50.424Z,52.50
2017-05-24T02:06:19.253Z,52.60
2017-05-24T02:08:48.089Z,52.20
2017-05-24T02:11:16.920Z,52.60
2017-05-24T02:13:45.744Z,52.60
2017-05-24T02:16:13.816Z,52.60
2017-05-24T02:18:42.657Z,52.60
2017-05-24T02:21:11.487Z,53.10
2017-05-24T02:23:40.398Z,53.20
2017-05-24T02:26:09.232Z,53.10
2017-05-24T02:28:38.068Z,53.00
2017-05-24T02:31:06.891Z,53.20
2017-05-24T02:33:34.963Z,53.20
2017-05-24T02:36:03.791Z,53.50
2017-05-24T02:38:32.627Z,53.80
2017-05-24T02:41:01.447Z,53.80
2017-05-24T02:43:30.293Z,53.70
2017-05-24T02:45:59.124Z,54.80
2017-05-24T02:48:27.947Z,54.40
2017-05-24T02:50:56.800Z,55.00
2017-05-24T02:53:25.627Z,54.90
2017-05-24T02:55:54.463Z,54.90
2017-05-24T02:58:23.292Z,55.00
2017-05-24T03:00:52.130Z,55.00
2017-05-24T03:03:20.998Z,55.30
2017-05-24T03:05:49.819Z,54.90
2017-05-24T03:08:18.652Z,54.90
2017-05-24T03:10:47.476Z,55.40
2017-05-24T03:13:16.321Z,55.30
2017-05-24T03:15:45.198Z,55.20
2017-05-24T03:18:14.041Z,55.30
2017-05-24T03:20:42.888Z,55.30
2017-05-24T03:23:11.719Z,56.20
2017-05-24T03:25:40.559Z,56.60
2017-05-24T03:28:09.394Z,56.80
2017-05-24T03:30:38.235Z,55.60
2017-05-24T03:33:07.091Z,55.80
2017-05-24T03:35:35.959Z,55.90
2017-05-24T03:38:04.804Z,55.90
2017-05-24T03:40:33.636Z,54.00
2017-05-24T03:43:02.477Z,53.10
2017-05-24T03:45:31.307Z,52.90
2017-05-24T03:48:00.155Z,52.20
2017-05-24T03:50:28.992Z,52.30
2017-05-24T03:52:57.820Z,51.80
2017-05-24T03:55:25.915Z,51.80
2017-05-24T03:57:54.736Z,52.60
2017-05-24T04:00:23.563Z,52.60
2017-05-24T04:02:52.543Z,52.00
2017-05-24T04:05:21.638Z,53.70
2017-05-24T04:07:50.483Z,53.60
2017-05-24T04:10:19.328Z,53.20
2017-05-24T04:12:48.158Z,52.90
2017-05-24T04:15:17.011Z,52.40
2017-05-24T04:17:45.127Z,52.30
2017-05-24T04:20:14.000Z,52.50
2017-05-24T04:22:42.831Z,53.90
2017-05-24T04:25:11.668Z,52.80
2017-05-24T04:27:40.517Z,52.50
2017-05-24T04:30:08.588Z,52.50
2017-05-24T04:32:37.424Z,51.60
2017-05-24T04:35:06.253Z,51.00
2017-05-24T04:37:35.096Z,51.30
2017-05-24T04:40:03.921Z,50.00
2017-05-24T04:42:32.771Z,50.30
2017-05-24T04:45:01.600Z,49.50
2017-05-24T04:47:30.441Z,49.30
2017-05-24T04:49:59.278Z,49.00
2017-05-24T04:52:27.352Z,48.80
2017-05-24T04:54:56.296Z,48.50
2017-05-24T04:57:25.132Z,49.60
2017-05-24T04:59:53.992Z,49.80
2017-05-24T05:02:22.818Z,49.60
2017-05-24T05:04:51.685Z,48.90
2017-05-24T05:07:20.516Z,48.80
2017-05-24T05:09:49.344Z,49.00
2017-05-24T05:12:18.181Z,48.50
2017-05-24T05:14:47.024Z,47.20
2017-05-24T05:17:15.863Z,46.50
2017-05-24T05:19:44.696Z,46.40
2017-05-24T05:22:13.536Z,46.50
2017-05-24T05:24:42.383Z,46.20
2017-05-24T05:27:11.234Z,46.40
2017-05-24T05:29:40.065Z,46.40
2017-05-24T05:32:08.909Z,47.00
2017-05-24T05:34:37.732Z,47.70
2017-05-24T05:37:06.577Z,46.60
2017-05-24T05:39:35.635Z,46.60
2017-05-24T05:42:04.469Z,46.80
2017-05-24T05:44:33.310Z,46.20
2017-05-24T05:47:02.147Z,46.40
2017-05-24T05:49:30.990Z,46.60
2017-05-24T05:51:59.832Z,46.50
2017-05-24T05:54:27.896Z,46.50
2017-05-24T05:56:55.998Z,46.70
2017-05-24T05:59:24.838Z,44.00
2017-05-24T06:01:53.675Z,43.70
2017-05-24T06:04:22.514Z,43.70
2017-05-24T06:06:51.336Z,43.30
2017-05-24T06:09:20.196Z,43.00
2017-05-24T06:11:49.043Z,43.40
2017-05-24T06:14:17.885Z,42.80
2017-05-24T06:16:46.726Z,43.00
2017-05-24T06:19:15.552Z,41.70
2017-05-24T06:21:44.398Z,41.10
2017-05-24T06:24:13.233Z,41.20
2017-05-24T06:26:42.076Z,40.70
2017-05-24T06:29:10.904Z,40.90
2017-05-24T06:31:39.766Z,40.70
2017-05-24T06:34:08.595Z,40.40
2017-05-24T06:36:37.428Z,39.40
2017-05-24T06:39:06.263Z,39.50
2017-05-24T06:41:35.102Z,38.80
2017-05-24T06:44:03.965Z,39.20
2017-05-24T06:46:32.788Z,38.70
2017-05-24T06:49:01.659Z,38.90
2017-05-24T06:51:30.486Z,38.00
2017-05-24T06:53:58.549Z,37.90
2017-05-24T06:56:27.400Z,37.50
2017-05-24T06:58:56.223Z,38.80
2017-05-24T07:01:25.065Z,37.40
2017-05-24T07:03:53.880Z,38.00
2017-05-24T07:06:22.722Z,37.20
2017-05-24T07:08:51.568Z,36.70
2017-05-24T07:11:20.445Z,34.50
2017-05-24T07:13:49.285Z,36.40
2017-05-24T07:16:18.104Z,35.30
2017-05-24T07:18:46.948Z,33.50
2017-05-24T07:21:15.782Z,34.10
2017-05-24T07:23:59.519Z,33.50
2017-05-24T07:26:28.348Z,33.20
2017-05-24T07:28:57.208Z,34.20
2017-05-24T07:31:26.028Z,34.90
2017-05-24T07:33:54.865Z,34.30
2017-05-24T07:36:23.699Z,34.80
2017-05-24T07:38:52.532Z,36.60
2017-05-24T07:41:21.369Z,35.10
2017-05-24T07:43:50.197Z,35.50
2017-05-24T07:46:19.024Z,34.80
2017-05-24T07:48:47.866Z,34.20
2017-05-24T07:51:16.723Z,34.10
2017-05-24T07:53:45.553Z,33.90
2017-05-24T07:56:14.384Z,33.10
2017-05-24T07:58:43.222Z,32.10
2017-05-24T08:01:12.066Z,32.40
2017-05-24T08:03:40.915Z,33.50
2017-05-24T08:06:09.750Z,33.90
2017-05-24T08:08:38.599Z,32.90
2017-05-24T08:11:07.619Z,32.40
2017-05-24T08:13:36.535Z,33.30
2017-05-24T08:16:05.400Z,33.50
2017-05-24T08:18:34.222Z,34.10
2017-05-24T08:21:03.069Z,34.90
2017-05-24T08:23:31.896Z,34.60
2017-05-24T08:26:00.742Z,32.90
2017-05-24T08:28:29.568Z,32.80
2017-05-24T08:30:58.423Z,33.00
2017-05-24T08:33:27.263Z,32.80
2017-05-24T08:35:56.096Z,32.30
2017-05-24T08:38:24.940Z,31.70
2017-05-24T08:40:53.787Z,30.80
2017-05-24T08:43:22.654Z,31.10
2017-05-24T08:45:51.501Z,29.90
2017-05-24T08:48:20.323Z,30.20
2017-05-24T08:50:49.177Z,30.40
2017-05-24T08:53:18.003Z,30.20
2017-05-24T08:55:46.869Z,29.90
2017-05-24T08:58:15.693Z,31.70
2017-05-24T09:00:44.559Z,31.30
2017-05-24T09:03:13.384Z,29.80
2017-05-24T09:05:42.215Z,31.70
2017-05-24T09:08:11.041Z,33.50
2017-05-24T09:10:39.871Z,33.00
2017-05-24T09:13:07.962Z,33.00
2017-05-24T09:15:36.780Z,28.50
2017-05-24T09:18:05.650Z,26.70
2017-05-24T09:20:34.491Z,26.30
2017-05-24T09:23:03.315Z,26.50
2017-05-24T09:25:32.149Z,25.90
2017-05-24T09:28:00.996Z,26.10
2017-05-24T09:30:29.826Z,26.50
2017-05-24T09:32:58.658Z,27.50
2017-05-24T09:35:27.483Z,27.20
2017-05-24T09:37:56.328Z,27.50
2017-05-24T09:40:25.169Z,27.80
2017-05-24T09:42:54.020Z,28.30
2017-05-24T09:45:22.842Z,29.40
2017-05-24T09:47:51.676Z,29.40
2017-05-24T09:50:20.520Z,29.50
2017-05-24T09:52:49.363Z,29.20
2017-05-24T09:55:18.203Z,30.30
2017-05-24T09:57:47.023Z,30.50
2017-05-24T10:00:15.855Z,29.90
2017-05-24T10:02:44.683Z,30.20
2017-05-24T10:05:13.645Z,30.40
2017-05-24T10:07:42.490Z,31.50
2017-05-24T10:10:11.312Z,31.20
2017-05-24T10:12:40.141Z,32.20
2017-05-24T10:15:08.996Z,31.90
2017-05-24T10:17:37.844Z,31.70
2017-05-24T10:20:06.668Z,32.00
2017-05-24T10:22:35.516Z,31.20
2017-05-24T10:25:04.348Z,31.70
2017-05-24T10:27:33.176Z,32.20
2017-05-24T10:30:02.021Z,33.30
2017-05-24T10:32:31.015Z,33.70
2017-05-24T10:34:59.924Z,32.90
2017-05-24T10:37:28.747Z,32.10
2017-05-24T10:40:11.593Z,31.20
2017-05-24T10:42:40.416Z,29.70
2017-05-24T10:45:09.245Z,30.70
2017-05-24T10:47:38.090Z,29.80
2017-05-24T10:50:06.915Z,28.70
2017-05-24T10:52:35.753Z,28.80
2017-05-24T10:55:04.596Z,30.20
2017-05-24T10:57:33.443Z,30.00
2017-05-24T11:00:02.267Z,29.50
2017-05-24T11:02:31.109Z,30.00
2017-05-24T11:04:59.940Z,31.40
2017-05-24T11:07:28.779Z,35.40
2017-05-24T11:09:57.635Z,36.50
2017-05-24T11:12:25.705Z,36.50
2017-05-24T11:14:54.572Z,38.10
2017-05-24T11:17:23.402Z,38.20
2017-05-24T11:19:52.243Z,41.30
2017-05-24T11:22:21.075Z,41.30
2017-05-24T11:24:49.900Z,42.50
2017-05-24T11:27:18.731Z,42.70
2017-05-24T11:29:47.562Z,40.60
2017-05-24T11:32:15.639Z,40.60
2017-05-24T11:34:43.711Z,42.40
2017-05-24T11:37:12.537Z,42.10
2017-05-24T11:39:41.368Z,41.70
2017-05-24T11:42:10.214Z,40.90
2017-05-24T11:44:39.062Z,38.70
2017-05-24T11:47:07.891Z,38.50
2017-05-24T11:49:36.740Z,37.90
2017-05-24T11:52:05.572Z,40.20
2017-05-24T11:54:34.403Z,40.20
2017-05-24T11:57:03.245Z,39.00
2017-05-24T11:59:32.069Z,41.40
2017-05-24T12:02:00.918Z,44.70
2017-05-24T12:04:29.754Z,45.60
2017-05-24T12:06:58.617Z,44.30
2017-05-24T12:09:27.441Z,43.10
2017-05-24T12:11:55.524Z,43.00
2017-05-24T12:14:24.370Z,42.90
2017-05-24T12:16:52.427Z,42.90
2017-05-24T12:19:21.257Z,45.40
2017-05-24T12:21:50.091Z,43.50
2017-05-24T12:24:18.928Z,42.50
2017-05-24T12:26:47.759Z,42.30
2017-05-24T12:29:16.575Z,42.70
2017-05-24T12:31:45.409Z,40.70
2017-05-24T12:34:14.255Z,40.90
2017-05-24T12:36:43.090Z,42.40
2017-05-24T12:39:11.912Z,42.90
2017-05-24T12:41:40.012Z,42.90
2017-05-24T12:44:08.837Z,42.20
2017-05-24T12:46:37.659Z,45.50
2017-05-24T12:49:06.499Z,46.90
2017-05-24T12:51:35.329Z,46.80
2017-05-24T12:54:04.168Z,46.40
2017-05-24T12:56:33.016Z,45.00
2017-05-24T12:59:01.856Z,45.50
2017-05-24T13:01:30.683Z,45.10
2017-05-24T13:03:59.526Z,45.70
2017-05-24T13:06:28.358Z,44.40
2017-05-24T13:08:57.198Z,46.70
2017-05-24T13:11:26.063Z,48.10
2017-05-24T13:13:54.895Z,46.90
2017-05-24T13:16:23.731Z,46.50
2017-05-24T13:18:52.557Z,45.60
2017-05-24T13:21:21.393Z,44.70
2017-05-24T13:23:50.243Z,44.40
2017-05-24T13:26:19.088Z,42.30
2017-05-24T13:28:47.913Z,43.10
2017-05-24T13:31:16.743Z,43.30
2017-05-24T13:33:45.611Z,41.20
2017-05-24T13:36:14.445Z,43.80
2017-05-24T13:38:43.284Z,45.30
2017-05-24T13:41:12.126Z,43.20
2017-05-24T13:43:40.957Z,42.10
2017-05-24T13:46:09.821Z,42.00
2017-05-24T13:48:38.638Z,42.40
2017-05-24T13:51:07.498Z,42.10
2017-05-24T13:53:36.329Z,41.40
2017-05-24T13:56:05.159Z,41.40
2017-05-24T13:58:33.990Z,41.80
2017-05-24T14:01:02.810Z,41.10
2017-05-24T14:03:31.664Z,41.40
2017-05-24T14:06:00.502Z,41.90
2017-05-24T14:08:29.363Z,42.70
2017-05-24T14:10:57.439Z,42.70
2017-05-24T14:13:26.261Z,44.30
2017-05-24T14:15:55.099Z,44.80
2017-05-24T14:18:23.925Z,44.70
2017-05-24T14:20:52.928Z,44.80
2017-05-24T14:23:21.746Z,44.40
2017-05-24T14:25:50.579Z,45.20
2017-05-24T14:28:19.417Z,44.20
2017-05-24T14:30:48.260Z,44.50
2017-05-24T14:33:16.323Z,44.50
2017-05-24T14:35:44.395Z,42.60
2017-05-24T14:38:13.235Z,43.20
2017-05-24T14:40:42.067Z,43.40
2017-05-24T14:43:10.918Z,43.30
2017-05-24T14:45:39.744Z,43.60
2017-05-24T14:48:08.618Z,45.30
2017-05-24T14:50:36.694Z,45.40
2017-05-24T14:53:05.516Z,45.80
2017-05-24T14:55:33.595Z,45.70
2017-05-24T14:58:02.424Z,45.50
2017-05-24T15:00:30.528Z,45.40
2017-05-24T15:02:58.589Z,45.40
2017-05-24T15:05:27.430Z,45.60
2017-05-24T15:07:56.258Z,46.30
2017-05-24T15:10:24.324Z,46.30
2017-05-24T15:12:53.158Z,45.40
2017-05-24T15:15:21.238Z,45.50
2017-05-24T15:17:50.071Z,45.70
2017-05-24T15:20:18.154Z,45.70
2017-05-24T15:22:47.007Z,44.90
2017-05-24T15:25:15.847Z,45.10
2017-05-24T15:27:44.681Z,44.80
2017-05-24T15:30:12.748Z,44.80
2017-05-24T15:32:40.877Z,45.20
2017-05-24T15:35:09.700Z,47.40
2017-05-24T15:37:38.544Z,46.50
2017-05-24T15:40:07.404Z,45.70
2017-05-24T15:42:36.228Z,45.60
2017-05-24T15:45:05.068Z,46.00
2017-05-24T15:47:33.904Z,47.60
2017-05-24T15:50:02.739Z,47.40
2017-05-24T15:52:31.572Z,47.40
2017-05-24T15:54:59.646Z,47.40
2017-05-24T15:57:28.493Z,47.40
2017-05-24T15:59:56.570Z,47.30
2017-05-24T16:02:25.395Z,46.80
2017-05-24T16:04:53.461Z,46.80
2017-05-24T16:07:22.312Z,46.20
2017-05-24T16:09:51.141Z,46.10
2017-05-24T16:12:19.978Z,45.70
2017-05-24T16:14:48.815Z,45.90
2017-05-24T16:17:17.643Z,46.20
2017-05-24T16:19:45.700Z,46.20
2017-05-24T16:37:39.624Z,46.90
2017-05-24T16:40:08.464Z,47.00
2017-05-24T16:42:37.420Z,46.60
2017-05-24T16:45:06.241Z,46.90
2017-05-24T16:47:35.082Z,48.00
2017-05-24T16:50:03.904Z,48.50
2017-05-24T16:52:32.744Z,48.90
2017-05-24T16:59:32.612Z,48.60
2017-05-24T17:02:00.695Z,48.60
2017-05-24T17:04:28.759Z,48.50
2017-05-24T17:06:57.588Z,48.60
2017-05-24T17:09:26.971Z,48.40
2017-05-24T17:11:55.807Z,48.40
2017-05-24T17:14:24.642Z,49.50
2017-05-24T17:16:53.503Z,55.80
2017-05-24T17:19:22.338Z,55.60
2017-05-24T17:21:51.189Z,56.20
2017-05-24T17:24:20.012Z,53.70
2017-05-24T17:26:48.880Z,52.80
2017-05-24T17:29:17.724Z,52.00
2017-05-24T17:31:45.789Z,52.00
2017-05-24T17:34:14.622Z,51.40
2017-05-24T17:36:43.448Z,52.20
2017-05-24T17:39:12.303Z,52.20
2017-05-24T17:41:40.379Z,52.20
2017-05-24T17:44:08.461Z,52.20
2017-05-24T17:46:36.527Z,53.40
2017-05-24T17:49:05.388Z,54.10
2017-05-24T17:51:34.221Z,54.30
2017-05-24T17:54:03.067Z,54.20
2017-05-24T17:56:31.904Z,54.60
2017-05-24T17:59:00.735Z,55.10
2017-05-24T18:01:29.592Z,56.00
2017-05-24T18:03:58.425Z,56.80
2017-05-24T18:06:27.266Z,56.00
2017-05-24T18:08:56.101Z,55.70
2017-05-24T18:11:24.928Z,55.60
2017-05-24T18:13:53.780Z,56.00
2017-05-24T18:16:22.620Z,55.10
2017-05-24T18:18:51.468Z,55.00
2017-05-24T18:21:20.300Z,54.10
2017-05-24T18:23:49.155Z,54.50
2017-05-24T18:26:17.987Z,55.10
2017-05-24T18:28:46.823Z,55.00
2017-05-24T18:31:15.676Z,55.20
2017-05-24T18:33:44.592Z,54.70
2017-05-24T18:36:13.460Z,54.80
2017-05-24T18:38:42.309Z,55.30
2017-05-24T18:41:11.161Z,55.20
2017-05-24T18:43:40.021Z,55.40
2017-05-24T18:46:08.856Z,56.30
2017-05-24T18:48:37.702Z,56.20
2017-05-24T18:51:06.535Z,56.80
2017-05-24T18:53:35.373Z,58.40
2017-05-24T18:56:04.215Z,58.90
2017-05-24T18:58:33.068Z,59.00
2017-05-24T19:01:01.900Z,59.20
2017-05-24T19:03:29.986Z,59.20
2017-05-24T19:05:58.830Z,60.40
2017-05-24T19:08:27.670Z,60.00
2017-05-24T19:10:56.521Z,60.40
2017-05-24T20:22:32.209Z,70.70
2017-05-24T20:25:01.105Z,70.70
2017-05-24T20:27:30.574Z,72.20
2017-05-24T20:29:59.804Z,73.80
2017-05-24T20:32:29.049Z,74.20
2017-05-24T20:34:58.201Z,72.80
2017-05-24T20:37:27.652Z,72.10
2017-05-24T20:39:56.002Z,72.10
2017-05-24T20:42:25.305Z,73.80
2017-05-24T20:44:53.795Z,73.80
2017-05-24T20:47:23.137Z,75.30
2017-05-24T20:49:52.433Z,74.90
2017-05-24T20:52:20.840Z,74.90
2017-05-24T20:54:50.205Z,74.00
2017-05-24T20:57:19.402Z,73.10
2017-05-24T20:59:48.983Z,74.30
2017-05-24T21:02:18.105Z,74.70
2017-05-24T21:04:47.511Z,75.90
2017-05-24T21:07:16.880Z,75.80
2017-05-24T21:09:46.959Z,75.90
2017-05-24T21:12:16.219Z,74.90
2017-05-24T21:14:45.395Z,74.80
2017-05-24T21:17:14.621Z,76.00
2017-05-24T21:19:42.975Z,76.00
2017-05-24T21:22:12.232Z,76.50
2017-05-24T21:24:41.480Z,76.10
2017-05-24T21:27:10.725Z,76.80
2017-05-24T21:29:39.243Z,76.80
2017-05-24T21:32:08.181Z,76.40
2017-05-24T21:34:37.120Z,76.30
2017-05-24T21:37:05.973Z,76.30
2017-05-24T21:39:34.827Z,76.70
2017-05-24T21:42:03.660Z,76.90
2017-05-24T21:44:32.495Z,78.20
2017-05-24T21:47:01.358Z,79.00
2017-05-24T21:49:30.199Z,79.10
2017-05-24T21:51:59.051Z,79.50
2017-05-24T21:54:27.885Z,78.00
2017-05-24T21:56:56.736Z,78.00
2017-05-24T21:59:25.576Z,79.00
2017-05-24T22:01:54.412Z,79.70
2017-05-24T22:04:23.260Z,77.70
2017-05-24T22:06:52.096Z,76.80
2017-05-24T22:09:20.937Z,76.80
2017-05-24T22:11:49.780Z,75.90
2017-05-24T22:14:18.650Z,74.70
2017-05-24T22:16:47.489Z,74.20
2017-05-24T22:19:16.324Z,73.60
2017-05-24T22:21:45.178Z,73.50
2017-05-24T22:24:14.023Z,74.50
2017-05-24T22:26:42.855Z,73.40
2017-05-24T22:29:11.990Z,74.50
2017-05-24T22:31:40.337Z,74.40
2017-05-24T22:34:09.607Z,78.20
2017-05-24T22:36:39.041Z,79.00
2017-05-24T22:39:08.295Z,79.00
2017-05-24T22:41:37.551Z,79.30
2017-05-24T22:44:06.786Z,79.10
2017-05-24T22:46:35.794Z,78.10
2017-05-24T22:49:05.032Z,78.00
2017-05-24T22:51:34.177Z,77.30
2017-05-24T22:54:03.120Z,77.30
2017-05-24T22:56:31.955Z,78.20
2017-05-24T22:59:00.803Z,79.90
2017-05-24T23:01:29.644Z,78.90
2017-05-24T23:03:57.716Z,78.90
2017-05-24T23:06:26.575Z,76.80
2017-05-24T23:08:55.430Z,76.10
2017-05-24T23:11:24.264Z,75.60
2017-05-24T23:13:54.011Z,75.30
2017-05-24T23:16:22.866Z,77.20
2017-05-24T23:18:52.641Z,77.10
2017-05-24T23:21:21.498Z,78.20
2017-05-24T23:23:50.340Z,77.70
2017-05-24T23:26:19.203Z,77.20
2017-05-24T23:28:48.035Z,78.90
2017-05-24T23:31:16.135Z,78.90
2017-05-24T23:33:44.969Z,78.80
2017-05-24T23:36:13.892Z,79.90
2017-05-24T23:38:42.727Z,78.10
2017-05-24T23:41:11.567Z,78.40
2017-05-24T23:43:40.431Z,79.90
2017-05-24T23:46:09.296Z,79.40
2017-05-24T23:48:38.129Z,79.50
2017-05-24T23:51:06.995Z,77.90
2017-05-24T23:53:35.845Z,77.50
2017-05-24T23:56:04.738Z,75.90
2017-05-24T23:58:33.524Z,75.20
